sensor_id;sensor_type;location;lat;lon;timestamp;P1;durP1;ratioP1;P2;durP2;ratioP2
2404;SDS011;1213;43.206;27.922;2022-10-18T00:01:57;2.70;;;2.50;;
2404;SDS011;1213;43.206;27.922;2022-10-18T00:04:22;2.83;;;2.20;;
2404;SDS011;1213;43.206;27.922;2022-10-18T00:06:47;6.17;;;3.80;;
2404;SDS011;1213;43.206;27.922;2022-10-18T00:09:13;3.07;;;2.00;;
2404;SDS011;1213;43.206;27.922;2022-10-18T00:11:38;3.00;;;2.73;;
2404;SDS011;1213;43.206;27.922;2022-10-18T00:14:03;3.40;;;3.00;;
2404;SDS011;1213;43.206;27.922;2022-10-18T00:16:29;3.43;;;2.40;;
2404;SDS011;1213;43.206;27.922;2022-10-18T00:18:54;2.37;;;2.17;;
2404;SDS011;1213;43.206;27.922;2022-10-18T00:21:20;3.07;;;2.57;;
2404;SDS011;1213;43.206;27.922;2022-10-18T00:23:46;2.03;;;1.83;;
2404;SDS011;1213;43.206;27.922;2022-10-18T00:26:13;2.03;;;1.83;;
2404;SDS011;1213;43.206;27.922;2022-10-18T00:28:39;5.43;;;2.20;;
2404;SDS011;1213;43.206;27.922;2022-10-18T00:31:08;4.90;;;3.30;;
2404;SDS011;1213;43.206;27.922;2022-10-18T00:33:33;3.30;;;3.10;;
2404;SDS011;1213;43.206;27.922;2022-10-18T00:35:59;2.37;;;1.70;;
2404;SDS011;1213;43.206;27.922;2022-10-18T00:38:24;2.97;;;2.67;;
2404;SDS011;1213;43.206;27.922;2022-10-18T00:40:50;3.53;;;2.87;;
2404;SDS011;1213;43.206;27.922;2022-10-18T00:43:15;2.10;;;1.57;;
2404;SDS011;1213;43.206;27.922;2022-10-18T00:45:42;3.03;;;1.93;;
2404;SDS011;1213;43.206;27.922;2022-10-18T00:48:07;2.40;;;2.20;;
2404;SDS011;1213;43.206;27.922;2022-10-18T00:50:32;2.93;;;2.63;;
2404;SDS011;1213;43.206;27.922;2022-10-18T00:53:00;4.43;;;2.57;;
2404;SDS011;1213;43.206;27.922;2022-10-18T00:55:26;2.30;;;2.10;;
2404;SDS011;1213;43.206;27.922;2022-10-18T00:57:52;4.27;;;2.90;;
2404;SDS011;1213;43.206;27.922;2022-10-18T01:00:18;3.47;;;2.20;;
2404;SDS011;1213;43.206;27.922;2022-10-18T01:02:43;4.23;;;3.80;;
2404;SDS011;1213;43.206;27.922;2022-10-18T01:05:10;2.47;;;2.23;;
2404;SDS011;1213;43.206;27.922;2022-10-18T01:07:40;3.13;;;2.83;;
2404;SDS011;1213;43.206;27.922;2022-10-18T01:22:43;6.13;;;3.03;;
2404;SDS011;1213;43.206;27.922;2022-10-18T01:32:52;3.50;;;2.77;;
2404;SDS011;1213;43.206;27.922;2022-10-18T01:35:20;3.73;;;2.90;;
2404;SDS011;1213;43.206;27.922;2022-10-18T01:37:46;4.13;;;2.30;;
2404;SDS011;1213;43.206;27.922;2022-10-18T01:40:14;3.43;;;3.13;;
2404;SDS011;1213;43.206;27.922;2022-10-18T01:42:42;6.23;;;4.00;;
2404;SDS011;1213;43.206;27.922;2022-10-18T01:45:09;4.30;;;3.90;;
2404;SDS011;1213;43.206;27.922;2022-10-18T01:47:36;4.83;;;3.37;;
2404;SDS011;1213;43.206;27.922;2022-10-18T01:50:02;5.27;;;3.10;;
2404;SDS011;1213;43.206;27.922;2022-10-18T01:52:28;4.33;;;2.73;;
2404;SDS011;1213;43.206;27.922;2022-10-18T01:54:53;5.23;;;3.37;;
2404;SDS011;1213;43.206;27.922;2022-10-18T02:05:06;3.23;;;2.97;;
2404;SDS011;1213;43.206;27.922;2022-10-18T02:07:36;3.60;;;2.87;;
2404;SDS011;1213;43.206;27.922;2022-10-18T02:10:07;4.73;;;2.57;;
2404;SDS011;1213;43.206;27.922;2022-10-18T02:12:35;4.13;;;2.90;;
2404;SDS011;1213;43.206;27.922;2022-10-18T02:15:01;4.60;;;2.53;;
2404;SDS011;1213;43.206;27.922;2022-10-18T02:17:27;5.40;;;2.90;;
2404;SDS011;1213;43.206;27.922;2022-10-18T02:19:53;3.60;;;3.30;;
2404;SDS011;1213;43.206;27.922;2022-10-18T02:22:19;3.70;;;2.53;;
2404;SDS011;1213;43.206;27.922;2022-10-18T02:24:47;3.27;;;2.97;;
2404;SDS011;1213;43.206;27.922;2022-10-18T02:27:13;3.10;;;2.50;;
2404;SDS011;1213;43.206;27.922;2022-10-18T02:29:39;3.23;;;2.93;;
2404;SDS011;1213;43.206;27.922;2022-10-18T02:32:07;3.27;;;2.83;;
2404;SDS011;1213;43.206;27.922;2022-10-18T02:34:36;3.13;;;2.93;;
2404;SDS011;1213;43.206;27.922;2022-10-18T02:37:02;3.90;;;3.10;;
2404;SDS011;1213;43.206;27.922;2022-10-18T02:39:35;5.03;;;3.07;;
2404;SDS011;1213;43.206;27.922;2022-10-18T02:42:02;5.53;;;2.43;;
2404;SDS011;1213;43.206;27.922;2022-10-18T02:44:30;5.40;;;2.27;;
2404;SDS011;1213;43.206;27.922;2022-10-18T02:46:56;1.67;;;1.53;;
2404;SDS011;1213;43.206;27.922;2022-10-18T02:49:21;3.73;;;2.20;;
2404;SDS011;1213;43.206;27.922;2022-10-18T02:51:46;2.07;;;1.80;;
2404;SDS011;1213;43.206;27.922;2022-10-18T02:54:11;3.70;;;2.63;;
2404;SDS011;1213;43.206;27.922;2022-10-18T02:56:37;4.13;;;3.30;;
2404;SDS011;1213;43.206;27.922;2022-10-18T02:59:02;3.70;;;3.40;;
2404;SDS011;1213;43.206;27.922;2022-10-18T03:01:29;3.13;;;2.40;;
2404;SDS011;1213;43.206;27.922;2022-10-18T03:03:56;3.37;;;3.00;;
2404;SDS011;1213;43.206;27.922;2022-10-18T03:06:22;4.03;;;3.30;;
2404;SDS011;1213;43.206;27.922;2022-10-18T03:08:47;9.33;;;3.20;;
2404;SDS011;1213;43.206;27.922;2022-10-18T03:11:12;4.03;;;2.90;;
2404;SDS011;1213;43.206;27.922;2022-10-18T03:13:38;2.77;;;2.57;;
2404;SDS011;1213;43.206;27.922;2022-10-18T03:16:03;4.23;;;3.00;;
2404;SDS011;1213;43.206;27.922;2022-10-18T03:18:28;2.53;;;2.33;;
2404;SDS011;1213;43.206;27.922;2022-10-18T03:20:54;5.10;;;3.77;;
2404;SDS011;1213;43.206;27.922;2022-10-18T03:23:19;3.23;;;3.03;;
2404;SDS011;1213;43.206;27.922;2022-10-18T03:25:44;4.17;;;2.80;;
2404;SDS011;1213;43.206;27.922;2022-10-18T03:28:10;7.13;;;4.07;;
2404;SDS011;1213;43.206;27.922;2022-10-18T03:30:35;3.40;;;2.80;;
2404;SDS011;1213;43.206;27.922;2022-10-18T03:33:00;5.23;;;4.33;;
2404;SDS011;1213;43.206;27.922;2022-10-18T03:35:25;4.73;;;3.10;;
2404;SDS011;1213;43.206;27.922;2022-10-18T03:37:51;4.13;;;3.50;;
2404;SDS011;1213;43.206;27.922;2022-10-18T03:40:16;3.30;;;3.00;;
2404;SDS011;1213;43.206;27.922;2022-10-18T03:42:42;4.90;;;3.13;;
2404;SDS011;1213;43.206;27.922;2022-10-18T03:45:07;3.53;;;2.27;;
2404;SDS011;1213;43.206;27.922;2022-10-18T03:47:32;3.87;;;3.40;;
2404;SDS011;1213;43.206;27.922;2022-10-18T03:49:58;3.10;;;2.80;;
2404;SDS011;1213;43.206;27.922;2022-10-18T03:52:23;3.80;;;3.17;;
2404;SDS011;1213;43.206;27.922;2022-10-18T03:54:48;3.87;;;2.67;;
2404;SDS011;1213;43.206;27.922;2022-10-18T03:57:13;5.00;;;4.60;;
2404;SDS011;1213;43.206;27.922;2022-10-18T03:59:39;3.47;;;2.70;;
2404;SDS011;1213;43.206;27.922;2022-10-18T04:02:04;3.93;;;3.60;;
2404;SDS011;1213;43.206;27.922;2022-10-18T04:04:29;3.10;;;2.90;;
2404;SDS011;1213;43.206;27.922;2022-10-18T04:06:54;5.87;;;3.77;;
2404;SDS011;1213;43.206;27.922;2022-10-18T04:09:22;6.70;;;2.97;;
2404;SDS011;1213;43.206;27.922;2022-10-18T04:11:50;3.63;;;3.30;;
2404;SDS011;1213;43.206;27.922;2022-10-18T04:14:15;4.27;;;3.60;;
2404;SDS011;1213;43.206;27.922;2022-10-18T04:16:41;4.80;;;3.40;;
2404;SDS011;1213;43.206;27.922;2022-10-18T04:19:06;3.80;;;3.00;;
2404;SDS011;1213;43.206;27.922;2022-10-18T04:21:33;4.77;;;3.77;;
2404;SDS011;1213;43.206;27.922;2022-10-18T04:23:58;3.80;;;3.50;;
2404;SDS011;1213;43.206;27.922;2022-10-18T04:26:23;6.97;;;4.00;;
2404;SDS011;1213;43.206;27.922;2022-10-18T04:28:49;4.07;;;3.57;;
2404;SDS011;1213;43.206;27.922;2022-10-18T04:31:14;7.40;;;3.97;;
2404;SDS011;1213;43.206;27.922;2022-10-18T04:33:39;16.20;;;4.80;;
2404;SDS011;1213;43.206;27.922;2022-10-18T04:36:05;13.40;;;4.17;;
2404;SDS011;1213;43.206;27.922;2022-10-18T04:38:30;12.20;;;3.43;;
2404;SDS011;1213;43.206;27.922;2022-10-18T04:40:56;5.77;;;3.63;;
2404;SDS011;1213;43.206;27.922;2022-10-18T04:43:21;6.90;;;4.40;;
2404;SDS011;1213;43.206;27.922;2022-10-18T04:45:46;4.57;;;3.10;;
2404;SDS011;1213;43.206;27.922;2022-10-18T04:48:13;4.77;;;4.13;;
2404;SDS011;1213;43.206;27.922;2022-10-18T04:50:38;5.70;;;4.10;;
2404;SDS011;1213;43.206;27.922;2022-10-18T04:53:03;7.77;;;5.20;;
2404;SDS011;1213;43.206;27.922;2022-10-18T04:55:29;10.17;;;4.03;;
2404;SDS011;1213;43.206;27.922;2022-10-18T04:57:54;6.27;;;4.33;;
2404;SDS011;1213;43.206;27.922;2022-10-18T05:00:19;4.87;;;3.93;;
2404;SDS011;1213;43.206;27.922;2022-10-18T05:02:44;10.27;;;5.20;;
2404;SDS011;1213;43.206;27.922;2022-10-18T05:05:10;5.70;;;5.03;;
2404;SDS011;1213;43.206;27.922;2022-10-18T05:07:35;4.10;;;3.30;;
2404;SDS011;1213;43.206;27.922;2022-10-18T05:10:01;10.33;;;4.83;;
2404;SDS011;1213;43.206;27.922;2022-10-18T05:12:27;6.70;;;5.70;;
2404;SDS011;1213;43.206;27.922;2022-10-18T05:14:52;3.97;;;3.53;;
2404;SDS011;1213;43.206;27.922;2022-10-18T05:17:17;5.17;;;4.47;;
2404;SDS011;1213;43.206;27.922;2022-10-18T05:19:43;5.27;;;3.80;;
2404;SDS011;1213;43.206;27.922;2022-10-18T05:22:08;4.80;;;4.03;;
2404;SDS011;1213;43.206;27.922;2022-10-18T05:24:33;4.60;;;4.10;;
2404;SDS011;1213;43.206;27.922;2022-10-18T05:26:58;4.00;;;3.60;;
2404;SDS011;1213;43.206;27.922;2022-10-18T05:29:24;5.77;;;5.17;;
2404;SDS011;1213;43.206;27.922;2022-10-18T05:31:49;4.17;;;3.90;;
2404;SDS011;1213;43.206;27.922;2022-10-18T05:34:15;5.70;;;4.40;;
2404;SDS011;1213;43.206;27.922;2022-10-18T05:36:40;4.33;;;4.00;;
2404;SDS011;1213;43.206;27.922;2022-10-18T05:39:05;6.47;;;3.57;;
2404;SDS011;1213;43.206;27.922;2022-10-18T05:41:30;6.10;;;5.17;;
2404;SDS011;1213;43.206;27.922;2022-10-18T05:43:56;3.30;;;2.83;;
2404;SDS011;1213;43.206;27.922;2022-10-18T05:46:21;10.53;;;4.40;;
2404;SDS011;1213;43.206;27.922;2022-10-18T05:48:50;8.87;;;4.87;;
2404;SDS011;1213;43.206;27.922;2022-10-18T05:51:15;6.03;;;4.73;;
2404;SDS011;1213;43.206;27.922;2022-10-18T05:53:41;5.53;;;5.03;;
2404;SDS011;1213;43.206;27.922;2022-10-18T05:56:06;9.30;;;6.47;;
2404;SDS011;1213;43.206;27.922;2022-10-18T05:58:31;9.60;;;6.97;;
2404;SDS011;1213;43.206;27.922;2022-10-18T06:00:57;8.17;;;6.77;;
2404;SDS011;1213;43.206;27.922;2022-10-18T06:03:23;9.70;;;6.40;;
2404;SDS011;1213;43.206;27.922;2022-10-18T06:05:49;11.70;;;6.77;;
2404;SDS011;1213;43.206;27.922;2022-10-18T06:08:14;7.67;;;6.50;;
2404;SDS011;1213;43.206;27.922;2022-10-18T06:10:39;8.80;;;5.30;;
2404;SDS011;1213;43.206;27.922;2022-10-18T06:13:05;6.47;;;5.87;;
2404;SDS011;1213;43.206;27.922;2022-10-18T06:15:30;6.80;;;6.20;;
2404;SDS011;1213;43.206;27.922;2022-10-18T06:17:59;10.67;;;6.20;;
2404;SDS011;1213;43.206;27.922;2022-10-18T06:20:24;8.70;;;6.03;;
2404;SDS011;1213;43.206;27.922;2022-10-18T06:22:52;7.57;;;6.03;;
2404;SDS011;1213;43.206;27.922;2022-10-18T06:25:17;11.90;;;5.37;;
2404;SDS011;1213;43.206;27.922;2022-10-18T06:27:43;10.40;;;5.60;;
2404;SDS011;1213;43.206;27.922;2022-10-18T06:30:08;20.07;;;6.17;;
2404;SDS011;1213;43.206;27.922;2022-10-18T06:32:34;9.20;;;4.60;;
2404;SDS011;1213;43.206;27.922;2022-10-18T06:34:59;5.10;;;4.60;;
2404;SDS011;1213;43.206;27.922;2022-10-18T06:37:24;7.50;;;6.67;;
2404;SDS011;1213;43.206;27.922;2022-10-18T06:39:49;7.43;;;6.63;;
2404;SDS011;1213;43.206;27.922;2022-10-18T06:42:15;26.23;;;6.17;;
2404;SDS011;1213;43.206;27.922;2022-10-18T06:44:40;8.50;;;6.53;;
2404;SDS011;1213;43.206;27.922;2022-10-18T06:47:08;11.53;;;6.47;;
2404;SDS011;1213;43.206;27.922;2022-10-18T06:49:33;6.63;;;4.67;;
2404;SDS011;1213;43.206;27.922;2022-10-18T06:51:58;6.50;;;5.70;;
2404;SDS011;1213;43.206;27.922;2022-10-18T06:54:24;8.50;;;5.20;;
2404;SDS011;1213;43.206;27.922;2022-10-18T06:56:49;12.60;;;6.00;;
2404;SDS011;1213;43.206;27.922;2022-10-18T06:59:15;6.67;;;5.87;;
2404;SDS011;1213;43.206;27.922;2022-10-18T07:01:42;8.53;;;6.00;;
2404;SDS011;1213;43.206;27.922;2022-10-18T07:04:07;8.73;;;5.73;;
2404;SDS011;1213;43.206;27.922;2022-10-18T07:06:33;10.20;;;6.20;;
2404;SDS011;1213;43.206;27.922;2022-10-18T07:08:58;7.67;;;4.70;;
2404;SDS011;1213;43.206;27.922;2022-10-18T07:11:24;9.30;;;6.67;;
2404;SDS011;1213;43.206;27.922;2022-10-18T07:13:57;8.57;;;6.60;;
2404;SDS011;1213;43.206;27.922;2022-10-18T07:16:32;7.83;;;6.17;;
2404;SDS011;1213;43.206;27.922;2022-10-18T07:18:58;5.93;;;4.90;;
2404;SDS011;1213;43.206;27.922;2022-10-18T07:21:24;6.07;;;4.87;;
2404;SDS011;1213;43.206;27.922;2022-10-18T07:23:50;6.80;;;6.10;;
2404;SDS011;1213;43.206;27.922;2022-10-18T07:26:26;9.60;;;5.23;;
2404;SDS011;1213;43.206;27.922;2022-10-18T07:28:54;7.20;;;6.47;;
2404;SDS011;1213;43.206;27.922;2022-10-18T07:31:20;10.20;;;5.50;;
2404;SDS011;1213;43.206;27.922;2022-10-18T07:33:46;7.83;;;5.63;;
2404;SDS011;1213;43.206;27.922;2022-10-18T07:36:11;8.50;;;5.37;;
2404;SDS011;1213;43.206;27.922;2022-10-18T07:38:37;8.13;;;6.23;;
2404;SDS011;1213;43.206;27.922;2022-10-18T07:41:03;8.00;;;5.00;;
2404;SDS011;1213;43.206;27.922;2022-10-18T07:43:30;7.43;;;5.00;;
2404;SDS011;1213;43.206;27.922;2022-10-18T07:45:59;10.30;;;5.50;;
2404;SDS011;1213;43.206;27.922;2022-10-18T07:48:25;10.23;;;5.27;;
2404;SDS011;1213;43.206;27.922;2022-10-18T07:50:51;4.83;;;4.17;;
2404;SDS011;1213;43.206;27.922;2022-10-18T07:53:16;5.47;;;4.80;;
2404;SDS011;1213;43.206;27.922;2022-10-18T07:55:41;42.00;;;24.87;;
2404;SDS011;1213;43.206;27.922;2022-10-18T07:58:08;5.23;;;4.50;;
2404;SDS011;1213;43.206;27.922;2022-10-18T08:00:34;1.90;;;1.80;;
2404;SDS011;1213;43.206;27.922;2022-10-18T08:03:00;2.10;;;1.87;;
2404;SDS011;1213;43.206;27.922;2022-10-18T08:05:26;1.97;;;1.50;;
2404;SDS011;1213;43.206;27.922;2022-10-18T08:07:52;3.20;;;2.10;;
2404;SDS011;1213;43.206;27.922;2022-10-18T08:10:18;3.43;;;1.47;;
2404;SDS011;1213;43.206;27.922;2022-10-18T08:12:43;4.33;;;1.90;;
2404;SDS011;1213;43.206;27.922;2022-10-18T08:15:08;3.50;;;1.87;;
2404;SDS011;1213;43.206;27.922;2022-10-18T08:17:34;3.93;;;1.90;;
2404;SDS011;1213;43.206;27.922;2022-10-18T08:19:59;1.70;;;1.53;;
2404;SDS011;1213;43.206;27.922;2022-10-18T08:22:24;1.60;;;1.50;;
2404;SDS011;1213;43.206;27.922;2022-10-18T08:24:49;3.97;;;1.53;;
2404;SDS011;1213;43.206;27.922;2022-10-18T08:27:15;1.73;;;1.20;;
2404;SDS011;1213;43.206;27.922;2022-10-18T08:29:40;2.23;;;1.80;;
2404;SDS011;1213;43.206;27.922;2022-10-18T08:32:05;2.23;;;1.30;;
2404;SDS011;1213;43.206;27.922;2022-10-18T08:34:32;1.43;;;1.17;;
2404;SDS011;1213;43.206;27.922;2022-10-18T08:36:57;4.40;;;1.87;;
2404;SDS011;1213;43.206;27.922;2022-10-18T08:39:22;1.73;;;1.20;;
2404;SDS011;1213;43.206;27.922;2022-10-18T08:41:51;1.30;;;1.00;;
2404;SDS011;1213;43.206;27.922;2022-10-18T08:46:51;2.13;;;1.40;;
2404;SDS011;1213;43.206;27.922;2022-10-18T08:49:25;7.53;;;3.20;;
2404;SDS011;1213;43.206;27.922;2022-10-18T08:51:52;2.60;;;2.03;;
2404;SDS011;1213;43.206;27.922;2022-10-18T08:57:00;1.43;;;1.33;;
2404;SDS011;1213;43.206;27.922;2022-10-18T08:59:47;2.33;;;1.10;;
2404;SDS011;1213;43.206;27.922;2022-10-18T09:09:52;1.20;;;1.10;;
2404;SDS011;1213;43.206;27.922;2022-10-18T09:17:55;3.40;;;1.70;;
2404;SDS011;1213;43.206;27.922;2022-10-18T09:20:24;2.23;;;1.13;;
2404;SDS011;1213;43.206;27.922;2022-10-18T09:22:54;1.30;;;1.13;;
2404;SDS011;1213;43.206;27.922;2022-10-18T09:25:54;3.57;;;1.33;;
2404;SDS011;1213;43.206;27.922;2022-10-18T09:28:24;2.00;;;1.80;;
2404;SDS011;1213;43.206;27.922;2022-10-18T09:36:04;1.60;;;1.50;;
2404;SDS011;1213;43.206;27.922;2022-10-18T09:38:41;3.63;;;2.00;;
2404;SDS011;1213;43.206;27.922;2022-10-18T09:41:12;2.60;;;1.30;;
2404;SDS011;1213;43.206;27.922;2022-10-18T09:44:05;3.30;;;1.35;;
2404;SDS011;1213;43.206;27.922;2022-10-18T09:46:39;0.93;;;0.83;;
2404;SDS011;1213;43.206;27.922;2022-10-18T09:49:10;1.30;;;1.20;;
2404;SDS011;1213;43.206;27.922;2022-10-18T09:51:38;2.03;;;1.70;;
2404;SDS011;1213;43.206;27.922;2022-10-18T09:54:14;1.83;;;1.33;;
2404;SDS011;1213;43.206;27.922;2022-10-18T09:56:43;1.43;;;1.07;;
2404;SDS011;1213;43.206;27.922;2022-10-18T09:59:19;1.67;;;1.43;;
2404;SDS011;1213;43.206;27.922;2022-10-18T10:01:47;1.87;;;1.00;;
2404;SDS011;1213;43.206;27.922;2022-10-18T10:04:12;3.70;;;1.40;;
2404;SDS011;1213;43.206;27.922;2022-10-18T10:06:39;1.33;;;1.23;;
2404;SDS011;1213;43.206;27.922;2022-10-18T10:09:13;1.70;;;1.60;;
2404;SDS011;1213;43.206;27.922;2022-10-18T10:11:43;3.27;;;1.67;;
2404;SDS011;1213;43.206;27.922;2022-10-18T10:14:23;2.63;;;1.47;;
2404;SDS011;1213;43.206;27.922;2022-10-18T10:16:51;1.63;;;1.30;;
2404;SDS011;1213;43.206;27.922;2022-10-18T10:19:22;2.37;;;1.97;;
2404;SDS011;1213;43.206;27.922;2022-10-18T10:21:48;1.57;;;1.20;;
2404;SDS011;1213;43.206;27.922;2022-10-18T10:24:59;2.60;;;1.40;;
2404;SDS011;1213;43.206;27.922;2022-10-18T10:27:03;4.13;;;1.27;;
2404;SDS011;1213;43.206;27.922;2022-10-18T10:32:02;3.20;;;1.20;;
2404;SDS011;1213;43.206;27.922;2022-10-18T10:34:28;1.40;;;0.93;;
2404;SDS011;1213;43.206;27.922;2022-10-18T10:36:53;1.50;;;1.10;;
2404;SDS011;1213;43.206;27.922;2022-10-18T10:39:20;1.43;;;1.33;;
2404;SDS011;1213;43.206;27.922;2022-10-18T10:41:52;1.33;;;1.23;;
2404;SDS011;1213;43.206;27.922;2022-10-18T10:44:19;1.80;;;1.40;;
2404;SDS011;1213;43.206;27.922;2022-10-18T10:46:44;4.03;;;2.30;;
2404;SDS011;1213;43.206;27.922;2022-10-18T10:49:20;1.50;;;1.40;;
2404;SDS011;1213;43.206;27.922;2022-10-18T10:51:45;3.57;;;2.13;;
2404;SDS011;1213;43.206;27.922;2022-10-18T10:54:18;2.70;;;1.77;;
2404;SDS011;1213;43.206;27.922;2022-10-18T10:56:50;1.17;;;1.07;;
2404;SDS011;1213;43.206;27.922;2022-10-18T10:59:16;1.40;;;1.13;;
2404;SDS011;1213;43.206;27.922;2022-10-18T11:01:44;1.73;;;1.30;;
2404;SDS011;1213;43.206;27.922;2022-10-18T11:04:22;3.23;;;1.87;;
2404;SDS011;1213;43.206;27.922;2022-10-18T11:12:01;1.60;;;1.47;;
2404;SDS011;1213;43.206;27.922;2022-10-18T11:14:37;3.17;;;1.70;;
2404;SDS011;1213;43.206;27.922;2022-10-18T11:17:07;1.43;;;1.33;;
2404;SDS011;1213;43.206;27.922;2022-10-18T11:19:41;1.53;;;1.43;;
2404;SDS011;1213;43.206;27.922;2022-10-18T11:22:11;1.73;;;1.63;;
2404;SDS011;1213;43.206;27.922;2022-10-18T11:24:36;2.77;;;2.13;;
2404;SDS011;1213;43.206;27.922;2022-10-18T11:27:04;1.50;;;1.37;;
2404;SDS011;1213;43.206;27.922;2022-10-18T11:39:55;1.43;;;1.33;;
2404;SDS011;1213;43.206;27.922;2022-10-18T11:44:57;1.60;;;1.10;;
2404;SDS011;1213;43.206;27.922;2022-10-18T11:47:28;2.03;;;1.47;;
2404;SDS011;1213;43.206;27.922;2022-10-18T11:52:50;2.23;;;1.90;;
2404;SDS011;1213;43.206;27.922;2022-10-18T11:58:33;1.57;;;1.10;;
2404;SDS011;1213;43.206;27.922;2022-10-18T12:05:25;1.70;;;1.40;;
2404;SDS011;1213;43.206;27.922;2022-10-18T12:08:01;2.50;;;1.97;;
2404;SDS011;1213;43.206;27.922;2022-10-18T12:10:30;1.73;;;1.53;;
2404;SDS011;1213;43.206;27.922;2022-10-18T12:12:57;2.43;;;2.10;;
2404;SDS011;1213;43.206;27.922;2022-10-18T12:15:25;4.40;;;2.07;;
2404;SDS011;1213;43.206;27.922;2022-10-18T12:17:55;3.43;;;1.53;;
2404;SDS011;1213;43.206;27.922;2022-10-18T12:20:26;1.40;;;1.10;;
2404;SDS011;1213;43.206;27.922;2022-10-18T12:23:54;3.57;;;1.27;;
2404;SDS011;1213;43.206;27.922;2022-10-18T12:25:49;2.27;;;2.07;;
2404;SDS011;1213;43.206;27.922;2022-10-18T12:33:29;2.20;;;1.50;;
2404;SDS011;1213;43.206;27.922;2022-10-18T12:38:33;1.87;;;1.37;;
2404;SDS011;1213;43.206;27.922;2022-10-18T12:40:59;1.50;;;1.10;;
2404;SDS011;1213;43.206;27.922;2022-10-18T12:43:30;1.57;;;1.47;;
2404;SDS011;1213;43.206;27.922;2022-10-18T12:46:01;1.10;;;1.00;;
2404;SDS011;1213;43.206;27.922;2022-10-18T12:48:30;1.20;;;1.10;;
2404;SDS011;1213;43.206;27.922;2022-10-18T12:50:57;1.40;;;1.30;;
2404;SDS011;1213;43.206;27.922;2022-10-18T12:53:23;1.57;;;1.23;;
2404;SDS011;1213;43.206;27.922;2022-10-18T12:55:51;1.50;;;1.40;;
2404;SDS011;1213;43.206;27.922;2022-10-18T13:18:53;1.10;;;0.97;;
2404;SDS011;1213;43.206;27.922;2022-10-18T13:24:17;1.40;;;1.20;;
2404;SDS011;1213;43.206;27.922;2022-10-18T13:34:57;1.50;;;1.30;;
2404;SDS011;1213;43.206;27.922;2022-10-18T13:37:22;1.87;;;1.20;;
2404;SDS011;1213;43.206;27.922;2022-10-18T13:39:48;1.63;;;1.43;;
2404;SDS011;1213;43.206;27.922;2022-10-18T13:44:40;1.43;;;1.33;;
2404;SDS011;1213;43.206;27.922;2022-10-18T13:49:41;3.40;;;1.40;;
2404;SDS011;1213;43.206;27.922;2022-10-18T13:52:24;2.90;;;1.43;;
2404;SDS011;1213;43.206;27.922;2022-10-18T14:05:23;1.63;;;1.53;;
2404;SDS011;1213;43.206;27.922;2022-10-18T14:07:51;2.43;;;1.70;;
2404;SDS011;1213;43.206;27.922;2022-10-18T14:10:24;1.47;;;1.37;;
2404;SDS011;1213;43.206;27.922;2022-10-18T14:12:51;1.60;;;1.50;;
2404;SDS011;1213;43.206;27.922;2022-10-18T14:15:25;2.63;;;1.30;;
2404;SDS011;1213;43.206;27.922;2022-10-18T14:17:52;5.73;;;1.10;;
2404;SDS011;1213;43.206;27.922;2022-10-18T14:23:36;1.60;;;1.00;;
2404;SDS011;1213;43.206;27.922;2022-10-18T14:25:36;2.97;;;1.97;;
2404;SDS011;1213;43.206;27.922;2022-10-18T14:28:23;2.30;;;1.30;;
2404;SDS011;1213;43.206;27.922;2022-10-18T14:30:51;1.30;;;1.00;;
2404;SDS011;1213;43.206;27.922;2022-10-18T14:33:24;1.10;;;0.93;;
2404;SDS011;1213;43.206;27.922;2022-10-18T14:38:27;1.43;;;1.33;;
2404;SDS011;1213;43.206;27.922;2022-10-18T14:41:35;1.67;;;1.20;;
2404;SDS011;1213;43.206;27.922;2022-10-18T14:43:42;2.17;;;1.23;;
2404;SDS011;1213;43.206;27.922;2022-10-18T14:46:08;3.60;;;2.10;;
2404;SDS011;1213;43.206;27.922;2022-10-18T14:48:34;1.00;;;0.90;;
2404;SDS011;1213;43.206;27.922;2022-10-18T14:50:59;1.50;;;1.00;;
2404;SDS011;1213;43.206;27.922;2022-10-18T14:53:27;1.50;;;1.23;;
2404;SDS011;1213;43.206;27.922;2022-10-18T14:55:57;1.97;;;1.30;;
2404;SDS011;1213;43.206;27.922;2022-10-18T14:58:24;1.83;;;1.50;;
2404;SDS011;1213;43.206;27.922;2022-10-18T15:00:50;1.60;;;1.40;;
2404;SDS011;1213;43.206;27.922;2022-10-18T15:03:16;2.30;;;1.50;;
2404;SDS011;1213;43.206;27.922;2022-10-18T15:05:55;3.73;;;1.70;;
2404;SDS011;1213;43.206;27.922;2022-10-18T15:08:22;1.60;;;1.40;;
2404;SDS011;1213;43.206;27.922;2022-10-18T15:10:49;2.43;;;1.90;;
2404;SDS011;1213;43.206;27.922;2022-10-18T15:13:14;1.40;;;1.10;;
2404;SDS011;1213;43.206;27.922;2022-10-18T15:15:40;2.27;;;1.90;;
2404;SDS011;1213;43.206;27.922;2022-10-18T15:18:12;2.97;;;1.60;;
2404;SDS011;1213;43.206;27.922;2022-10-18T15:20:43;3.37;;;1.63;;
2404;SDS011;1213;43.206;27.922;2022-10-18T15:23:27;4.33;;;1.40;;
2404;SDS011;1213;43.206;27.922;2022-10-18T15:26:01;2.03;;;1.30;;
2404;SDS011;1213;43.206;27.922;2022-10-18T15:28:31;1.70;;;1.60;;
2404;SDS011;1213;43.206;27.922;2022-10-18T15:30:59;3.37;;;1.67;;
2404;SDS011;1213;43.206;27.922;2022-10-18T15:33:26;3.10;;;2.03;;
2404;SDS011;1213;43.206;27.922;2022-10-18T15:36:05;2.30;;;1.57;;
2404;SDS011;1213;43.206;27.922;2022-10-18T15:38:32;1.23;;;1.00;;
2404;SDS011;1213;43.206;27.922;2022-10-18T15:41:00;1.60;;;1.00;;
2404;SDS011;1213;43.206;27.922;2022-10-18T15:48:18;2.23;;;1.60;;
2404;SDS011;1213;43.206;27.922;2022-10-18T15:50:48;4.20;;;1.87;;
2404;SDS011;1213;43.206;27.922;2022-10-18T15:55:52;4.50;;;1.97;;
2404;SDS011;1213;43.206;27.922;2022-10-18T15:58:23;2.10;;;1.77;;
2404;SDS011;1213;43.206;27.922;2022-10-18T16:00:50;1.57;;;1.27;;
2404;SDS011;1213;43.206;27.922;2022-10-18T16:03:16;2.33;;;2.00;;
2404;SDS011;1213;43.206;27.922;2022-10-18T16:05:42;2.30;;;1.53;;
2404;SDS011;1213;43.206;27.922;2022-10-18T16:08:17;3.90;;;2.10;;
2404;SDS011;1213;43.206;27.922;2022-10-18T16:10:43;4.60;;;1.80;;
2404;SDS011;1213;43.206;27.922;2022-10-18T16:13:08;1.83;;;1.70;;
2404;SDS011;1213;43.206;27.922;2022-10-18T16:15:34;2.80;;;2.13;;
2404;SDS011;1213;43.206;27.922;2022-10-18T16:17:59;3.10;;;1.53;;
2404;SDS011;1213;43.206;27.922;2022-10-18T16:20:24;2.53;;;1.57;;
2404;SDS011;1213;43.206;27.922;2022-10-18T16:22:51;2.33;;;2.00;;
2404;SDS011;1213;43.206;27.922;2022-10-18T16:25:17;1.60;;;1.50;;
2404;SDS011;1213;43.206;27.922;2022-10-18T16:27:43;1.50;;;1.23;;
2404;SDS011;1213;43.206;27.922;2022-10-18T16:30:12;1.87;;;1.77;;
2404;SDS011;1213;43.206;27.922;2022-10-18T16:32:38;1.53;;;1.43;;
2404;SDS011;1213;43.206;27.922;2022-10-18T16:35:04;1.47;;;1.00;;
2404;SDS011;1213;43.206;27.922;2022-10-18T16:37:30;1.90;;;1.63;;
2404;SDS011;1213;43.206;27.922;2022-10-18T16:39:55;1.40;;;1.30;;
2404;SDS011;1213;43.206;27.922;2022-10-18T16:42:20;3.00;;;2.00;;
2404;SDS011;1213;43.206;27.922;2022-10-18T16:44:46;1.40;;;1.30;;
2404;SDS011;1213;43.206;27.922;2022-10-18T16:47:12;2.33;;;1.83;;
2404;SDS011;1213;43.206;27.922;2022-10-18T16:49:37;1.73;;;1.60;;
2404;SDS011;1213;43.206;27.922;2022-10-18T16:52:03;2.00;;;1.80;;
2404;SDS011;1213;43.206;27.922;2022-10-18T16:54:29;3.77;;;2.80;;
2404;SDS011;1213;43.206;27.922;2022-10-18T16:56:54;2.80;;;2.03;;
2404;SDS011;1213;43.206;27.922;2022-10-18T16:59:25;2.30;;;1.63;;
2404;SDS011;1213;43.206;27.922;2022-10-18T17:01:51;3.40;;;1.27;;
2404;SDS011;1213;43.206;27.922;2022-10-18T17:04:16;2.50;;;1.10;;
2404;SDS011;1213;43.206;27.922;2022-10-18T17:06:42;3.00;;;2.80;;
2404;SDS011;1213;43.206;27.922;2022-10-18T17:09:07;1.80;;;1.70;;
2404;SDS011;1213;43.206;27.922;2022-10-18T17:11:33;2.23;;;1.83;;
2404;SDS011;1213;43.206;27.922;2022-10-18T17:13:58;1.83;;;1.73;;
2404;SDS011;1213;43.206;27.922;2022-10-18T17:18:49;1.83;;;1.40;;
2404;SDS011;1213;43.206;27.922;2022-10-18T17:21:14;3.43;;;1.67;;
2404;SDS011;1213;43.206;27.922;2022-10-18T17:23:40;3.50;;;1.20;;
2404;SDS011;1213;43.206;27.922;2022-10-18T17:26:08;2.90;;;1.90;;
2404;SDS011;1213;43.206;27.922;2022-10-18T17:28:35;1.60;;;1.50;;
2404;SDS011;1213;43.206;27.922;2022-10-18T17:31:04;6.20;;;1.80;;
2404;SDS011;1213;43.206;27.922;2022-10-18T17:33:30;1.73;;;1.50;;
2404;SDS011;1213;43.206;27.922;2022-10-18T17:35:55;3.17;;;2.50;;